createdAt,value
2022-12-28T00:01:36.513Z,100759.40
2022-12-28T00:06:41.611Z,100754.80
2022-12-28T00:11:45.871Z,100752.60
2022-12-28T00:16:50.697Z,100755.20
2022-12-28T00:21:55.139Z,100757.60
2022-12-28T00:26:59.479Z,100765.00
2022-12-28T00:32:03.599Z,100756.60
2022-12-28T00:37:12.628Z,100758.40
2022-12-28T00:42:17.129Z,100766.80
2022-12-28T00:47:21.233Z,100763.80
2022-12-28T00:52:25.165Z,100760.00
2022-12-28T00:57:29.608Z,100759.20
2022-12-28T01:02:34.950Z,100762.40
2022-12-28T01:07:38.885Z,100758.80
2022-12-28T01:12:42.800Z,100765.80
2022-12-28T01:17:46.648Z,100761.00
2022-12-28T01:22:50.782Z,100752.60
2022-12-28T01:27:55.336Z,100750.20
2022-12-28T01:33:00.688Z,100742.40
2022-12-28T01:38:04.502Z,100744.20
2022-12-28T01:43:14.822Z,100745.00
2022-12-28T01:48:41.377Z,100742.00
2022-12-28T01:53:45.828Z,100742.20
2022-12-28T01:58:50.509Z,100744.00
2022-12-28T02:03:54.475Z,100729.60
2022-12-28T02:09:24.291Z,100719.00
2022-12-28T02:14:28.119Z,100719.40
2022-12-28T02:19:46.786Z,100714.40
2022-12-28T02:25:32.815Z,100711.80
2022-12-28T02:30:48.041Z,100700.80
2022-12-28T02:35:58.158Z,100702.20
2022-12-28T02:41:15.497Z,100692.20
2022-12-28T02:46:38.885Z,100690.60
2022-12-28T02:52:13.016Z,100685.60
2022-12-28T02:57:38.373Z,100687.20
2022-12-28T03:03:08.650Z,100685.40
2022-12-28T03:08:20.743Z,100679.80
2022-12-28T03:13:43.781Z,100685.00
2022-12-28T03:19:17.001Z,100683.40
2022-12-28T03:24:39.761Z,100685.40
2022-12-28T03:30:14.427Z,100688.20
2022-12-28T03:35:23.818Z,100681.80
2022-12-28T03:40:48.204Z,100678.00
2022-12-28T03:46:03.298Z,100678.40
2022-12-28T03:51:07.299Z,100683.20
2022-12-28T03:56:21.979Z,100674.80
2022-12-28T04:01:25.865Z,100672.20
2022-12-28T04:06:29.941Z,100665.40
2022-12-28T04:11:33.885Z,100665.60
2022-12-28T04:16:38.104Z,100665.00
2022-12-28T04:21:41.920Z,100656.80
2022-12-28T04:26:45.749Z,100659.60
2022-12-28T04:31:50.810Z,100661.00
2022-12-28T04:36:54.721Z,100654.00
2022-12-28T04:41:58.646Z,100653.80
2022-12-28T04:47:02.330Z,100648.20
2022-12-28T04:52:06.509Z,100645.40
2022-12-28T04:57:10.419Z,100643.40
2022-12-28T05:02:14.128Z,100634.40
2022-12-28T05:07:18.185Z,100633.00
2022-12-28T05:12:23.453Z,100636.80
2022-12-28T05:17:27.267Z,100637.40
2022-12-28T05:22:35.016Z,100636.60
2022-12-28T05:27:40.264Z,100629.00
2022-12-28T05:32:44.065Z,100630.00
2022-12-28T05:37:48.006Z,100626.80
2022-12-28T05:42:52.153Z,100614.20
2022-12-28T05:47:56.155Z,100598.40
2022-12-28T05:53:00.122Z,100589.60
2022-12-28T05:58:04.024Z,100577.40
2022-12-28T06:03:08.693Z,100576.60
2022-12-28T06:08:16.050Z,100576.40
2022-12-28T06:13:22.047Z,100581.60
2022-12-28T06:18:29.753Z,100580.00
2022-12-28T06:23:33.988Z,100558.80
2022-12-28T06:28:38.576Z,100550.20
2022-12-28T06:33:43.961Z,100546.40
2022-12-28T06:38:50.273Z,100545.00
2022-12-28T06:43:55.844Z,100538.20
2022-12-28T06:49:00.388Z,100529.80
2022-12-28T06:54:05.119Z,100522.60
2022-12-28T06:59:09.747Z,100518.60
2022-12-28T07:04:13.478Z,100519.80
2022-12-28T07:09:19.015Z,100521.40
2022-12-28T07:14:23.129Z,100506.60
2022-12-28T07:19:27.133Z,100509.40
2022-12-28T07:24:32.285Z,100505.40
2022-12-28T07:29:35.907Z,100505.00
2022-12-28T07:34:39.934Z,100501.60
2022-12-28T07:39:43.892Z,100509.20
2022-12-28T07:44:49.264Z,100510.00
2022-12-28T07:49:53.147Z,100496.60
2022-12-28T07:54:56.986Z,100479.60
2022-12-28T08:00:01.316Z,100478.00
2022-12-28T08:05:05.747Z,100470.20
2022-12-28T08:10:12.037Z,100480.20
2022-12-28T08:15:16.159Z,100480.40
2022-12-28T08:20:20.410Z,100505.00
2022-12-28T08:25:24.223Z,100486.20
2022-12-28T08:30:28.056Z,100464.20
2022-12-28T08:35:32.304Z,100457.40
2022-12-28T08:40:35.921Z,100466.80
2022-12-28T08:45:39.771Z,100462.40
2022-12-28T08:50:43.551Z,100461.80
2022-12-28T08:55:49.014Z,100451.60
2022-12-28T09:00:52.469Z,100438.60
2022-12-28T09:05:57.175Z,100435.20
2022-12-28T09:11:08.679Z,100422.00
2022-12-28T09:16:16.467Z,100422.20
2022-12-28T09:21:22.767Z,100417.20
2022-12-28T09:26:32.957Z,100413.80
2022-12-28T09:31:37.734Z,100417.40
2022-12-28T09:36:44.517Z,100400.80
2022-12-28T09:42:15.765Z,100404.60
2022-12-28T09:47:28.915Z,100404.80
2022-12-28T09:52:58.949Z,100388.80
2022-12-28T09:58:12.763Z,100380.00
2022-12-28T10:03:37.761Z,100377.20
2022-12-28T10:08:56.525Z,100363.00
2022-12-28T10:14:04.326Z,100363.40
2022-12-28T10:19:08.899Z,100347.80
2022-12-28T10:24:31.437Z,100336.80
2022-12-28T10:29:36.288Z,100333.20
2022-12-28T10:35:00.923Z,100319.00
2022-12-28T10:40:24.434Z,100311.20
2022-12-28T10:45:38.839Z,100295.40
2022-12-28T10:51:04.915Z,100283.80
2022-12-28T10:56:14.979Z,100276.60
2022-12-28T11:01:30.931Z,100258.80
2022-12-28T11:06:57.661Z,100236.40
2022-12-28T11:12:29.639Z,100229.00
2022-12-28T11:17:38.268Z,100211.60
2022-12-28T11:22:42.294Z,100204.20
2022-12-28T11:27:48.673Z,100187.40
2022-12-28T11:33:01.073Z,100171.20
2022-12-28T11:38:12.532Z,100161.20
2022-12-28T11:43:31.398Z,100177.40
2022-12-28T11:48:44.446Z,100169.00
2022-12-28T11:53:48.666Z,100156.40
2022-12-28T11:59:04.167Z,100150.60
2022-12-28T12:04:17.723Z,100152.20
2022-12-28T12:09:21.334Z,100147.60
2022-12-28T12:14:37.049Z,100137.40
2022-12-28T12:19:49.695Z,100133.40
2022-12-28T12:25:19.061Z,100118.80
2022-12-28T12:30:24.842Z,100104.60
2022-12-28T12:35:34.947Z,100104.60
2022-12-28T12:41:07.750Z,100090.00
2022-12-28T12:46:32.800Z,100095.00
2022-12-28T12:52:44.178Z,100089.40
2022-12-28T12:58:05.933Z,100072.80
2022-12-28T13:03:44.877Z,100063.40
2022-12-28T13:09:05.342Z,100071.60
2022-12-28T13:14:25.086Z,100065.00
2022-12-28T13:19:30.404Z,100054.60
2022-12-28T13:24:46.529Z,100046.40
2022-12-28T13:29:55.164Z,100042.40
2022-12-28T13:35:00.277Z,100038.40
2022-12-28T13:40:13.041Z,100041.20
2022-12-28T13:45:22.374Z,100042.20
2022-12-28T13:50:34.632Z,100039.80
2022-12-28T13:55:56.819Z,100042.80
2022-12-28T14:01:09.673Z,100036.00
2022-12-28T14:06:19.622Z,100023.20
2022-12-28T14:11:24.589Z,100025.00
2022-12-28T14:16:30.425Z,100023.20
2022-12-28T14:21:46.062Z,100014.80
2022-12-28T14:26:58.791Z,100008.60
2022-12-28T14:32:15.411Z,100007.20
2022-12-28T14:37:40.832Z,99997.60
2022-12-28T14:42:51.830Z,99996.00
2022-12-28T14:47:56.911Z,99999.00
2022-12-28T14:53:20.339Z,99988.60
2022-12-28T14:58:31.185Z,99985.40
2022-12-28T15:03:57.035Z,99972.00
2022-12-28T15:09:05.343Z,99974.20
2022-12-28T15:14:09.492Z,99971.20
2022-12-28T15:19:13.700Z,99977.60
2022-12-28T15:24:20.999Z,99976.20
2022-12-28T15:29:55.715Z,99977.80
2022-12-28T15:34:50.203Z,99974.20
2022-12-28T15:39:54.190Z,99975.00
2022-12-28T15:44:58.219Z,99956.20
2022-12-28T15:50:03.859Z,99954.00
2022-12-28T15:55:08.436Z,99946.60
2022-12-28T16:00:20.038Z,99948.80
2022-12-28T16:05:24.375Z,99945.40
2022-12-28T16:10:28.949Z,99940.40
2022-12-28T16:15:34.280Z,99938.80
2022-12-28T16:20:38.519Z,99936.80
2022-12-28T16:25:51.130Z,99937.80
2022-12-28T16:30:55.788Z,99922.00
2022-12-28T16:36:00.955Z,99921.60
2022-12-28T16:41:06.468Z,99919.00
2022-12-28T16:46:11.758Z,99910.20
2022-12-28T16:51:17.984Z,99919.80
2022-12-28T16:56:23.829Z,99916.60
2022-12-28T17:01:31.055Z,99911.60
2022-12-28T17:06:38.246Z,99913.60
2022-12-28T17:11:47.764Z,99909.20
2022-12-28T17:16:56.265Z,99903.20
2022-12-28T17:22:04.901Z,99901.60
2022-12-28T17:27:18.651Z,99898.60
2022-12-28T17:32:27.674Z,99899.00
2022-12-28T17:37:32.622Z,99887.80
2022-12-28T17:42:38.244Z,99885.80
2022-12-28T17:47:44.115Z,99878.00
2022-12-28T17:52:48.406Z,99873.80
2022-12-28T17:57:52.535Z,99878.20
2022-12-28T18:02:57.145Z,99868.80
2022-12-28T18:08:01.312Z,99861.60
2022-12-28T18:13:05.130Z,99860.00
2022-12-28T18:18:09.237Z,99857.20
2022-12-28T18:23:13.005Z,99863.00
2022-12-28T18:28:17.136Z,99853.60
2022-12-28T18:33:21.680Z,99857.20
2022-12-28T18:38:26.023Z,99860.60
2022-12-28T18:43:29.928Z,99854.40
2022-12-28T18:48:38.149Z,99845.00
2022-12-28T18:53:47.517Z,99836.20
2022-12-28T18:58:56.133Z,99833.00
2022-12-28T19:04:01.483Z,99838.80
2022-12-28T19:09:08.555Z,99828.00
2022-12-28T19:14:16.066Z,99829.60
2022-12-28T19:19:21.403Z,99821.40
2022-12-28T19:24:25.207Z,99829.00
2022-12-28T19:29:30.665Z,99825.20
2022-12-28T19:34:34.601Z,99826.60
2022-12-28T19:39:38.733Z,99833.40
2022-12-28T19:44:43.018Z,99830.80
2022-12-28T19:49:46.998Z,99832.20
2022-12-28T19:54:51.265Z,99833.00
2022-12-28T19:59:56.661Z,99836.00
2022-12-28T20:05:00.765Z,99832.80
2022-12-28T20:10:07.562Z,99839.40
2022-12-28T20:15:12.681Z,99844.00
2022-12-28T20:20:17.689Z,99841.40
2022-12-28T20:25:23.290Z,99831.00
2022-12-28T20:30:27.533Z,99828.20
2022-12-28T20:35:31.879Z,99827.80
2022-12-28T20:40:37.441Z,99831.20
2022-12-28T20:45:41.550Z,99828.00
2022-12-28T20:50:45.563Z,99825.80
2022-12-28T20:55:50.372Z,99827.80
2022-12-28T21:00:54.454Z,99829.80
2022-12-28T21:05:58.830Z,99824.40
2022-12-28T21:11:03.904Z,99834.80
2022-12-28T21:16:09.392Z,99830.60
2022-12-28T21:21:20.172Z,99830.20
2022-12-28T21:26:26.717Z,99834.80
2022-12-28T21:31:31.201Z,99837.00
2022-12-28T21:36:35.605Z,99831.80
2022-12-28T21:41:52.045Z,99824.60
2022-12-28T21:46:56.245Z,99826.80
2022-12-28T21:52:02.136Z,99815.00
2022-12-28T21:57:06.548Z,99820.00
2022-12-28T22:02:38.747Z,99820.00
2022-12-28T22:07:43.105Z,99818.40
2022-12-28T22:12:47.001Z,99817.00
2022-12-28T22:17:58.532Z,99812.20
2022-12-28T22:23:05.569Z,99812.80
2022-12-28T22:28:10.183Z,99814.60
2022-12-28T22:33:13.876Z,99808.60
2022-12-28T22:38:18.016Z,99797.80
2022-12-28T22:43:21.937Z,99791.20
2022-12-28T22:48:25.654Z,99793.60
2022-12-28T22:53:29.922Z,99785.20
2022-12-28T22:58:35.256Z,99781.00
2022-12-28T23:03:45.206Z,99772.80
2022-12-28T23:08:51.097Z,99776.40
2022-12-28T23:13:54.814Z,99769.40
2022-12-28T23:19:17.077Z,99763.00
2022-12-28T23:24:40.053Z,99759.60
2022-12-28T23:29:45.293Z,99755.20
2022-12-28T23:34:51.981Z,99758.00
2022-12-28T23:39:56.089Z,99757.00
2022-12-28T23:44:59.866Z,99755.40
2022-12-28T23:50:06.511Z,99733.00
2022-12-28T23:55:11.705Z,99736.20
